sensor_id;sensor_type;location;lat;lon;timestamp;P1;durP1;ratioP1;P2;durP2;ratioP2
2173;SDS011;1093;51.424;11.764;2024-03-06T00:02:17;26.87;;;15.50;;
2173;SDS011;1093;51.424;11.764;2024-03-06T00:05:22;25.73;;;16.37;;
2173;SDS011;1093;51.424;11.764;2024-03-06T00:08:35;29.93;;;16.27;;
2173;SDS011;1093;51.424;11.764;2024-03-06T00:17:40;22.73;;;15.40;;
2173;SDS011;1093;51.424;11.764;2024-03-06T00:20:21;32.47;;;16.40;;
2173;SDS011;1093;51.424;11.764;2024-03-06T00:23:30;28.43;;;16.43;;
2173;SDS011;1093;51.424;11.764;2024-03-06T00:26:50;28.27;;;15.40;;
2173;SDS011;1093;51.424;11.764;2024-03-06T00:29:40;26.40;;;16.73;;
2173;SDS011;1093;51.424;11.764;2024-03-06T00:32:50;35.97;;;16.80;;
2173;SDS011;1093;51.424;11.764;2024-03-06T00:36:08;23.23;;;16.00;;
2173;SDS011;1093;51.424;11.764;2024-03-06T00:38:27;26.57;;;16.50;;
2173;SDS011;1093;51.424;11.764;2024-03-06T00:40:56;19.90;;;14.40;;
2173;SDS011;1093;51.424;11.764;2024-03-06T00:43:43;33.57;;;16.97;;
2173;SDS011;1093;51.424;11.764;2024-03-06T00:46:16;28.67;;;19.00;;
2173;SDS011;1093;51.424;11.764;2024-03-06T00:48:49;28.20;;;18.50;;
2173;SDS011;1093;51.424;11.764;2024-03-06T00:51:34;31.70;;;18.37;;
2173;SDS011;1093;51.424;11.764;2024-03-06T00:54:14;30.33;;;16.40;;
2173;SDS011;1093;51.424;11.764;2024-03-06T00:56:43;25.20;;;15.33;;
2173;SDS011;1093;51.424;11.764;2024-03-06T00:59:41;30.30;;;18.60;;
2173;SDS011;1093;51.424;11.764;2024-03-06T01:02:09;30.07;;;18.70;;
2173;SDS011;1093;51.424;11.764;2024-03-06T01:04:54;29.60;;;19.50;;
2173;SDS011;1093;51.424;11.764;2024-03-06T01:08:19;28.83;;;18.50;;
2173;SDS011;1093;51.424;11.764;2024-03-06T01:10:58;30.80;;;18.63;;
2173;SDS011;1093;51.424;11.764;2024-03-06T01:13:50;31.80;;;17.00;;
2173;SDS011;1093;51.424;11.764;2024-03-06T01:16:48;33.40;;;19.10;;
2173;SDS011;1093;51.424;11.764;2024-03-06T01:19:29;35.70;;;18.67;;
2173;SDS011;1093;51.424;11.764;2024-03-06T01:22:02;29.40;;;18.63;;
2173;SDS011;1093;51.424;11.764;2024-03-06T01:24:46;28.10;;;17.43;;
2173;SDS011;1093;51.424;11.764;2024-03-06T01:27:38;31.47;;;18.83;;
2173;SDS011;1093;51.424;11.764;2024-03-06T01:30:13;31.37;;;18.50;;
2173;SDS011;1093;51.424;11.764;2024-03-06T01:33:39;39.67;;;21.10;;
2173;SDS011;1093;51.424;11.764;2024-03-06T01:36:30;32.93;;;19.00;;
2173;SDS011;1093;51.424;11.764;2024-03-06T01:39:25;30.30;;;17.80;;
2173;SDS011;1093;51.424;11.764;2024-03-06T01:42:13;37.70;;;18.93;;
2173;SDS011;1093;51.424;11.764;2024-03-06T01:44:45;25.50;;;16.40;;
2173;SDS011;1093;51.424;11.764;2024-03-06T01:47:17;31.77;;;17.73;;
2173;SDS011;1093;51.424;11.764;2024-03-06T01:49:53;32.60;;;18.97;;
2173;SDS011;1093;51.424;11.764;2024-03-06T01:52:37;36.97;;;18.80;;
2173;SDS011;1093;51.424;11.764;2024-03-06T01:58:32;27.90;;;19.20;;
2173;SDS011;1093;51.424;11.764;2024-03-06T02:01:38;40.13;;;19.50;;
2173;SDS011;1093;51.424;11.764;2024-03-06T02:04:43;31.93;;;17.70;;
2173;SDS011;1093;51.424;11.764;2024-03-06T02:07:29;24.13;;;17.00;;
2173;SDS011;1093;51.424;11.764;2024-03-06T02:10:27;30.50;;;18.60;;
2173;SDS011;1093;51.424;11.764;2024-03-06T02:13:22;33.07;;;18.33;;
2173;SDS011;1093;51.424;11.764;2024-03-06T02:23:10;29.90;;;17.47;;
2173;SDS011;1093;51.424;11.764;2024-03-06T02:25:38;30.23;;;17.47;;
2173;SDS011;1093;51.424;11.764;2024-03-06T02:28:30;29.50;;;17.03;;
2173;SDS011;1093;51.424;11.764;2024-03-06T02:31:09;32.77;;;18.40;;
2173;SDS011;1093;51.424;11.764;2024-03-06T02:33:53;29.50;;;17.97;;
2173;SDS011;1093;51.424;11.764;2024-03-06T02:36:32;35.27;;;18.37;;
2173;SDS011;1093;51.424;11.764;2024-03-06T02:39:13;31.90;;;20.53;;
2173;SDS011;1093;51.424;11.764;2024-03-06T02:42:08;28.07;;;18.30;;
2173;SDS011;1093;51.424;11.764;2024-03-06T02:44:51;39.83;;;18.40;;
2173;SDS011;1093;51.424;11.764;2024-03-06T02:47:32;29.47;;;17.97;;
2173;SDS011;1093;51.424;11.764;2024-03-06T02:50:17;32.77;;;18.27;;
2173;SDS011;1093;51.424;11.764;2024-03-06T02:52:57;34.17;;;21.20;;
2173;SDS011;1093;51.424;11.764;2024-03-06T02:55:43;29.03;;;18.57;;
2173;SDS011;1093;51.424;11.764;2024-03-06T02:58:52;29.73;;;17.40;;
2173;SDS011;1093;51.424;11.764;2024-03-06T03:01:49;27.30;;;17.60;;
2173;SDS011;1093;51.424;11.764;2024-03-06T03:04:25;34.03;;;20.13;;
2173;SDS011;1093;51.424;11.764;2024-03-06T03:06:53;33.63;;;18.37;;
2173;SDS011;1093;51.424;11.764;2024-03-06T03:09:27;34.00;;;19.50;;
2173;SDS011;1093;51.424;11.764;2024-03-06T03:15:13;33.90;;;18.27;;
2173;SDS011;1093;51.424;11.764;2024-03-06T03:18:24;30.90;;;18.60;;
2173;SDS011;1093;51.424;11.764;2024-03-06T03:21:08;25.47;;;17.67;;
2173;SDS011;1093;51.424;11.764;2024-03-06T03:24:00;35.73;;;18.23;;
2173;SDS011;1093;51.424;11.764;2024-03-06T03:27:02;33.07;;;19.90;;
2173;SDS011;1093;51.424;11.764;2024-03-06T03:29:41;27.70;;;18.03;;
2173;SDS011;1093;51.424;11.764;2024-03-06T03:32:32;28.43;;;17.43;;
2173;SDS011;1093;51.424;11.764;2024-03-06T03:35:32;26.33;;;17.07;;
2173;SDS011;1093;51.424;11.764;2024-03-06T03:38:17;32.70;;;19.10;;
2173;SDS011;1093;51.424;11.764;2024-03-06T03:41:08;43.43;;;20.30;;
2173;SDS011;1093;51.424;11.764;2024-03-06T03:43:44;32.97;;;19.90;;
2173;SDS011;1093;51.424;11.764;2024-03-06T03:46:17;29.40;;;17.87;;
2173;SDS011;1093;51.424;11.764;2024-03-06T03:48:57;35.03;;;19.60;;
2173;SDS011;1093;51.424;11.764;2024-03-06T03:51:31;26.77;;;18.10;;
2173;SDS011;1093;51.424;11.764;2024-03-06T03:53:58;35.83;;;19.47;;
2173;SDS011;1093;51.424;11.764;2024-03-06T03:56:34;30.40;;;18.47;;
2173;SDS011;1093;51.424;11.764;2024-03-06T03:59:11;34.03;;;19.07;;
2173;SDS011;1093;51.424;11.764;2024-03-06T04:01:51;33.07;;;18.77;;
2173;SDS011;1093;51.424;11.764;2024-03-06T04:04:25;39.33;;;19.20;;
2173;SDS011;1093;51.424;11.764;2024-03-06T04:07:31;32.30;;;19.47;;
2173;SDS011;1093;51.424;11.764;2024-03-06T04:10:20;30.30;;;18.30;;
2173;SDS011;1093;51.424;11.764;2024-03-06T04:13:07;27.07;;;17.93;;
2173;SDS011;1093;51.424;11.764;2024-03-06T04:15:38;30.43;;;19.00;;
2173;SDS011;1093;51.424;11.764;2024-03-06T04:18:24;30.57;;;18.50;;
2173;SDS011;1093;51.424;11.764;2024-03-06T04:21:01;31.37;;;20.57;;
2173;SDS011;1093;51.424;11.764;2024-03-06T04:23:49;33.70;;;20.77;;
2173;SDS011;1093;51.424;11.764;2024-03-06T04:26:29;33.33;;;21.43;;
2173;SDS011;1093;51.424;11.764;2024-03-06T04:29:39;28.97;;;17.27;;
2173;SDS011;1093;51.424;11.764;2024-03-06T04:32:31;31.97;;;19.90;;
2173;SDS011;1093;51.424;11.764;2024-03-06T04:35:16;32.30;;;20.10;;
2173;SDS011;1093;51.424;11.764;2024-03-06T04:37:54;29.57;;;16.47;;
2173;SDS011;1093;51.424;11.764;2024-03-06T04:43:58;37.10;;;19.67;;
2173;SDS011;1093;51.424;11.764;2024-03-06T04:46:49;33.47;;;19.10;;
2173;SDS011;1093;51.424;11.764;2024-03-06T04:49:19;37.00;;;18.60;;
2173;SDS011;1093;51.424;11.764;2024-03-06T04:51:52;35.00;;;19.80;;
2173;SDS011;1093;51.424;11.764;2024-03-06T04:54:41;32.17;;;19.07;;
2173;SDS011;1093;51.424;11.764;2024-03-06T04:57:57;28.20;;;18.27;;
2173;SDS011;1093;51.424;11.764;2024-03-06T05:04:21;48.70;;;18.87;;
2173;SDS011;1093;51.424;11.764;2024-03-06T05:07:05;33.40;;;19.73;;
2173;SDS011;1093;51.424;11.764;2024-03-06T05:10:17;36.73;;;18.33;;
2173;SDS011;1093;51.424;11.764;2024-03-06T05:13:16;33.27;;;18.63;;
2173;SDS011;1093;51.424;11.764;2024-03-06T05:16:01;33.43;;;19.73;;
2173;SDS011;1093;51.424;11.764;2024-03-06T05:18:45;38.87;;;19.10;;
2173;SDS011;1093;51.424;11.764;2024-03-06T05:21:36;38.87;;;20.03;;
2173;SDS011;1093;51.424;11.764;2024-03-06T05:27:21;32.33;;;18.93;;
2173;SDS011;1093;51.424;11.764;2024-03-06T05:30:10;42.30;;;19.83;;
2173;SDS011;1093;51.424;11.764;2024-03-06T05:32:42;31.80;;;18.67;;
2173;SDS011;1093;51.424;11.764;2024-03-06T05:35:24;35.60;;;21.30;;
2173;SDS011;1093;51.424;11.764;2024-03-06T05:38:10;38.80;;;21.57;;
2173;SDS011;1093;51.424;11.764;2024-03-06T05:40:40;44.40;;;22.83;;
2173;SDS011;1093;51.424;11.764;2024-03-06T05:43:12;38.57;;;20.27;;
2173;SDS011;1093;51.424;11.764;2024-03-06T05:45:48;32.47;;;20.10;;
2173;SDS011;1093;51.424;11.764;2024-03-06T05:48:34;41.97;;;22.10;;
2173;SDS011;1093;51.424;11.764;2024-03-06T05:51:08;40.23;;;21.97;;
2173;SDS011;1093;51.424;11.764;2024-03-06T05:54:07;32.87;;;21.30;;
2173;SDS011;1093;51.424;11.764;2024-03-06T05:59:49;37.10;;;20.67;;
2173;SDS011;1093;51.424;11.764;2024-03-06T06:02:25;39.33;;;21.97;;
2173;SDS011;1093;51.424;11.764;2024-03-06T06:05:13;38.90;;;21.80;;
2173;SDS011;1093;51.424;11.764;2024-03-06T06:08:03;42.57;;;22.60;;
2173;SDS011;1093;51.424;11.764;2024-03-06T06:10:42;35.80;;;20.97;;
2173;SDS011;1093;51.424;11.764;2024-03-06T06:19:54;41.70;;;21.60;;
2173;SDS011;1093;51.424;11.764;2024-03-06T06:22:56;42.77;;;23.57;;
2173;SDS011;1093;51.424;11.764;2024-03-06T06:25:58;43.13;;;22.20;;
2173;SDS011;1093;51.424;11.764;2024-03-06T06:28:50;36.90;;;20.70;;
2173;SDS011;1093;51.424;11.764;2024-03-06T06:31:46;42.87;;;24.00;;
2173;SDS011;1093;51.424;11.764;2024-03-06T06:34:26;42.40;;;22.67;;
2173;SDS011;1093;51.424;11.764;2024-03-06T06:37:11;43.57;;;24.07;;
2173;SDS011;1093;51.424;11.764;2024-03-06T06:40:07;44.53;;;22.50;;
2173;SDS011;1093;51.424;11.764;2024-03-06T06:42:47;42.23;;;24.03;;
2173;SDS011;1093;51.424;11.764;2024-03-06T06:45:22;40.73;;;23.73;;
2173;SDS011;1093;51.424;11.764;2024-03-06T06:48:14;51.10;;;26.03;;
2173;SDS011;1093;51.424;11.764;2024-03-06T06:50:55;46.83;;;25.00;;
2173;SDS011;1093;51.424;11.764;2024-03-06T06:53:27;51.17;;;25.63;;
2173;SDS011;1093;51.424;11.764;2024-03-06T06:56:11;43.97;;;25.00;;
2173;SDS011;1093;51.424;11.764;2024-03-06T07:01:54;41.50;;;24.17;;
2173;SDS011;1093;51.424;11.764;2024-03-06T07:04:53;45.10;;;25.83;;
2173;SDS011;1093;51.424;11.764;2024-03-06T07:07:29;43.37;;;25.67;;
2173;SDS011;1093;51.424;11.764;2024-03-06T07:10:04;52.13;;;26.33;;
2173;SDS011;1093;51.424;11.764;2024-03-06T07:12:53;47.07;;;25.40;;
2173;SDS011;1093;51.424;11.764;2024-03-06T07:15:22;60.63;;;28.47;;
2173;SDS011;1093;51.424;11.764;2024-03-06T07:17:53;56.80;;;26.63;;
2173;SDS011;1093;51.424;11.764;2024-03-06T07:20:42;50.87;;;27.63;;
2173;SDS011;1093;51.424;11.764;2024-03-06T07:23:22;52.63;;;27.37;;
2173;SDS011;1093;51.424;11.764;2024-03-06T07:25:53;55.17;;;29.13;;
2173;SDS011;1093;51.424;11.764;2024-03-06T07:28:40;58.10;;;30.10;;
2173;SDS011;1093;51.424;11.764;2024-03-06T07:31:14;51.60;;;27.73;;
2173;SDS011;1093;51.424;11.764;2024-03-06T07:33:53;51.50;;;26.60;;
2173;SDS011;1093;51.424;11.764;2024-03-06T07:36:26;58.37;;;28.87;;
2173;SDS011;1093;51.424;11.764;2024-03-06T07:39:14;53.67;;;28.07;;
2173;SDS011;1093;51.424;11.764;2024-03-06T07:42:01;49.13;;;28.33;;
2173;SDS011;1093;51.424;11.764;2024-03-06T07:44:38;55.10;;;28.50;;
2173;SDS011;1093;51.424;11.764;2024-03-06T07:47:22;57.27;;;26.80;;
2173;SDS011;1093;51.424;11.764;2024-03-06T07:49:58;54.43;;;29.60;;
2173;SDS011;1093;51.424;11.764;2024-03-06T07:52:27;55.53;;;27.40;;
2173;SDS011;1093;51.424;11.764;2024-03-06T07:55:07;44.63;;;26.67;;
2173;SDS011;1093;51.424;11.764;2024-03-06T07:57:56;62.23;;;28.93;;
2173;SDS011;1093;51.424;11.764;2024-03-06T08:00:31;44.10;;;27.37;;
2173;SDS011;1093;51.424;11.764;2024-03-06T08:03:12;55.80;;;28.67;;
2173;SDS011;1093;51.424;11.764;2024-03-06T08:05:51;50.70;;;29.17;;
2173;SDS011;1093;51.424;11.764;2024-03-06T08:14:43;49.03;;;28.30;;
2173;SDS011;1093;51.424;11.764;2024-03-06T08:17:24;60.30;;;29.57;;
2173;SDS011;1093;51.424;11.764;2024-03-06T08:20:11;56.03;;;30.00;;
2173;SDS011;1093;51.424;11.764;2024-03-06T08:22:52;55.53;;;29.17;;
2173;SDS011;1093;51.424;11.764;2024-03-06T08:25:39;60.03;;;29.27;;
2173;SDS011;1093;51.424;11.764;2024-03-06T08:28:31;58.47;;;30.10;;
2173;SDS011;1093;51.424;11.764;2024-03-06T08:31:18;55.43;;;30.07;;
2173;SDS011;1093;51.424;11.764;2024-03-06T08:33:58;56.57;;;28.97;;
2173;SDS011;1093;51.424;11.764;2024-03-06T08:36:34;57.50;;;30.47;;
2173;SDS011;1093;51.424;11.764;2024-03-06T08:39:09;52.87;;;28.07;;
2173;SDS011;1093;51.424;11.764;2024-03-06T08:41:45;54.53;;;29.50;;
2173;SDS011;1093;51.424;11.764;2024-03-06T08:44:32;54.90;;;29.53;;
2173;SDS011;1093;51.424;11.764;2024-03-06T08:47:11;63.13;;;30.77;;
2173;SDS011;1093;51.424;11.764;2024-03-06T08:49:54;60.00;;;31.73;;
2173;SDS011;1093;51.424;11.764;2024-03-06T08:52:42;56.97;;;30.10;;
2173;SDS011;1093;51.424;11.764;2024-03-06T08:55:29;55.80;;;29.37;;
2173;SDS011;1093;51.424;11.764;2024-03-06T08:58:21;55.30;;;30.10;;
2173;SDS011;1093;51.424;11.764;2024-03-06T09:01:02;58.60;;;31.00;;
2173;SDS011;1093;51.424;11.764;2024-03-06T09:03:44;62.90;;;31.80;;
2173;SDS011;1093;51.424;11.764;2024-03-06T09:06:12;53.50;;;30.60;;
2173;SDS011;1093;51.424;11.764;2024-03-06T09:08:43;55.50;;;29.93;;
2173;SDS011;1093;51.424;11.764;2024-03-06T09:11:12;65.40;;;31.70;;
2173;SDS011;1093;51.424;11.764;2024-03-06T09:13:39;55.37;;;31.43;;
2173;SDS011;1093;51.424;11.764;2024-03-06T09:16:20;67.87;;;32.60;;
2173;SDS011;1093;51.424;11.764;2024-03-06T09:21:32;66.97;;;36.50;;
2173;SDS011;1093;51.424;11.764;2024-03-06T09:24:03;68.47;;;37.60;;
2173;SDS011;1093;51.424;11.764;2024-03-06T09:26:32;64.37;;;32.57;;
2173;SDS011;1093;51.424;11.764;2024-03-06T09:29:04;65.97;;;33.90;;
2173;SDS011;1093;51.424;11.764;2024-03-06T09:31:37;55.43;;;31.37;;
2173;SDS011;1093;51.424;11.764;2024-03-06T09:34:11;60.77;;;32.53;;
2173;SDS011;1093;51.424;11.764;2024-03-06T09:36:40;70.07;;;36.03;;
2173;SDS011;1093;51.424;11.764;2024-03-06T09:39:18;67.50;;;34.87;;
2173;SDS011;1093;51.424;11.764;2024-03-06T09:41:50;67.03;;;35.17;;
2173;SDS011;1093;51.424;11.764;2024-03-06T09:44:46;68.33;;;36.27;;
2173;SDS011;1093;51.424;11.764;2024-03-06T09:47:32;58.33;;;35.27;;
2173;SDS011;1093;51.424;11.764;2024-03-06T09:50:09;69.80;;;37.33;;
2173;SDS011;1093;51.424;11.764;2024-03-06T09:52:52;72.50;;;35.10;;
2173;SDS011;1093;51.424;11.764;2024-03-06T09:55:26;73.20;;;36.07;;
2173;SDS011;1093;51.424;11.764;2024-03-06T09:58:11;59.43;;;35.90;;
2173;SDS011;1093;51.424;11.764;2024-03-06T10:00:48;58.07;;;32.77;;
2173;SDS011;1093;51.424;11.764;2024-03-06T10:03:24;58.27;;;33.10;;
2173;SDS011;1093;51.424;11.764;2024-03-06T10:05:57;51.00;;;31.00;;
2173;SDS011;1093;51.424;11.764;2024-03-06T10:08:35;59.43;;;32.77;;
2173;SDS011;1093;51.424;11.764;2024-03-06T10:11:06;59.27;;;32.67;;
2173;SDS011;1093;51.424;11.764;2024-03-06T10:13:39;49.70;;;29.10;;
2173;SDS011;1093;51.424;11.764;2024-03-06T10:16:14;57.57;;;31.87;;
2173;SDS011;1093;51.424;11.764;2024-03-06T10:18:46;63.90;;;34.50;;
2173;SDS011;1093;51.424;11.764;2024-03-06T10:21:17;57.60;;;32.43;;
2173;SDS011;1093;51.424;11.764;2024-03-06T10:27:15;56.00;;;31.37;;
2173;SDS011;1093;51.424;11.764;2024-03-06T10:30:01;56.97;;;32.13;;
2173;SDS011;1093;51.424;11.764;2024-03-06T10:32:48;55.60;;;30.23;;
2173;SDS011;1093;51.424;11.764;2024-03-06T10:35:42;54.13;;;30.40;;
2173;SDS011;1093;51.424;11.764;2024-03-06T10:38:47;49.20;;;31.07;;
2173;SDS011;1093;51.424;11.764;2024-03-06T10:41:28;54.00;;;28.87;;
2173;SDS011;1093;51.424;11.764;2024-03-06T10:44:06;46.73;;;29.13;;
2173;SDS011;1093;51.424;11.764;2024-03-06T10:46:59;47.90;;;31.33;;
2173;SDS011;1093;51.424;11.764;2024-03-06T10:49:28;50.73;;;28.07;;
2173;SDS011;1093;51.424;11.764;2024-03-06T10:52:18;49.67;;;28.53;;
2173;SDS011;1093;51.424;11.764;2024-03-06T10:54:51;45.53;;;29.43;;
2173;SDS011;1093;51.424;11.764;2024-03-06T10:57:24;49.57;;;29.57;;
2173;SDS011;1093;51.424;11.764;2024-03-06T10:59:52;45.00;;;25.70;;
2173;SDS011;1093;51.424;11.764;2024-03-06T11:02:42;50.80;;;29.00;;
2173;SDS011;1093;51.424;11.764;2024-03-06T11:05:21;51.00;;;27.70;;
2173;SDS011;1093;51.424;11.764;2024-03-06T11:08:10;48.77;;;27.77;;
2173;SDS011;1093;51.424;11.764;2024-03-06T11:10:43;44.33;;;25.77;;
2173;SDS011;1093;51.424;11.764;2024-03-06T11:13:21;46.80;;;26.17;;
2173;SDS011;1093;51.424;11.764;2024-03-06T11:15:59;45.03;;;29.07;;
2173;SDS011;1093;51.424;11.764;2024-03-06T11:18:47;39.80;;;24.27;;
2173;SDS011;1093;51.424;11.764;2024-03-06T11:21:29;47.30;;;25.17;;
2173;SDS011;1093;51.424;11.764;2024-03-06T11:24:31;43.27;;;27.87;;
2173;SDS011;1093;51.424;11.764;2024-03-06T11:27:12;45.87;;;25.60;;
2173;SDS011;1093;51.424;11.764;2024-03-06T11:32:57;42.30;;;26.07;;
2173;SDS011;1093;51.424;11.764;2024-03-06T11:38:53;42.43;;;24.00;;
2173;SDS011;1093;51.424;11.764;2024-03-06T11:41:56;40.07;;;25.20;;
2173;SDS011;1093;51.424;11.764;2024-03-06T11:44:28;38.23;;;25.40;;
2173;SDS011;1093;51.424;11.764;2024-03-06T11:47:13;44.17;;;27.07;;
2173;SDS011;1093;51.424;11.764;2024-03-06T11:50:08;44.07;;;25.90;;
2173;SDS011;1093;51.424;11.764;2024-03-06T11:56:17;39.87;;;27.40;;
2173;SDS011;1093;51.424;11.764;2024-03-06T12:02:20;38.10;;;23.77;;
2173;SDS011;1093;51.424;11.764;2024-03-06T12:05:04;39.23;;;24.80;;
2173;SDS011;1093;51.424;11.764;2024-03-06T12:07:53;40.87;;;26.50;;
2173;SDS011;1093;51.424;11.764;2024-03-06T12:10:28;42.13;;;25.77;;
2173;SDS011;1093;51.424;11.764;2024-03-06T12:20:09;43.93;;;25.50;;
2173;SDS011;1093;51.424;11.764;2024-03-06T12:23:10;51.83;;;25.80;;
2173;SDS011;1093;51.424;11.764;2024-03-06T12:26:25;43.70;;;27.10;;
2173;SDS011;1093;51.424;11.764;2024-03-06T12:29:54;50.47;;;28.17;;
2173;SDS011;1093;51.424;11.764;2024-03-06T12:32:31;43.37;;;27.83;;
2173;SDS011;1093;51.424;11.764;2024-03-06T12:35:14;42.50;;;27.80;;
2173;SDS011;1093;51.424;11.764;2024-03-06T12:38:11;46.80;;;27.80;;
2173;SDS011;1093;51.424;11.764;2024-03-06T12:41:01;49.73;;;30.17;;
2173;SDS011;1093;51.424;11.764;2024-03-06T12:43:29;62.07;;;34.13;;
2173;SDS011;1093;51.424;11.764;2024-03-06T12:46:10;55.90;;;32.00;;
2173;SDS011;1093;51.424;11.764;2024-03-06T12:48:54;46.87;;;31.63;;
2173;SDS011;1093;51.424;11.764;2024-03-06T12:57:55;42.73;;;27.67;;
2173;SDS011;1093;51.424;11.764;2024-03-06T13:00:49;40.80;;;27.23;;
2173;SDS011;1093;51.424;11.764;2024-03-06T13:03:33;50.73;;;25.70;;
2173;SDS011;1093;51.424;11.764;2024-03-06T13:06:05;41.40;;;23.97;;
2173;SDS011;1093;51.424;11.764;2024-03-06T13:08:41;38.97;;;25.13;;
2173;SDS011;1093;51.424;11.764;2024-03-06T13:11:25;44.17;;;26.13;;
2173;SDS011;1093;51.424;11.764;2024-03-06T13:14:05;30.80;;;23.70;;
2173;SDS011;1093;51.424;11.764;2024-03-06T13:17:00;38.47;;;25.10;;
2173;SDS011;1093;51.424;11.764;2024-03-06T13:19:31;43.10;;;25.90;;
2173;SDS011;1093;51.424;11.764;2024-03-06T13:22:01;42.10;;;25.60;;
2173;SDS011;1093;51.424;11.764;2024-03-06T13:24:37;36.43;;;23.47;;
2173;SDS011;1093;51.424;11.764;2024-03-06T13:30:45;35.50;;;22.77;;
2173;SDS011;1093;51.424;11.764;2024-03-06T13:33:37;31.83;;;20.93;;
2173;SDS011;1093;51.424;11.764;2024-03-06T13:36:05;40.47;;;24.27;;
2173;SDS011;1093;51.424;11.764;2024-03-06T13:38:55;35.00;;;23.70;;
2173;SDS011;1093;51.424;11.764;2024-03-06T13:41:51;33.57;;;22.53;;
2173;SDS011;1093;51.424;11.764;2024-03-06T13:44:34;38.80;;;22.93;;
2173;SDS011;1093;51.424;11.764;2024-03-06T13:47:14;38.40;;;23.00;;
2173;SDS011;1093;51.424;11.764;2024-03-06T13:50:02;41.47;;;21.00;;
2173;SDS011;1093;51.424;11.764;2024-03-06T13:52:40;35.43;;;21.97;;
2173;SDS011;1093;51.424;11.764;2024-03-06T13:55:36;34.63;;;21.33;;
2173;SDS011;1093;51.424;11.764;2024-03-06T13:58:41;39.03;;;21.77;;
2173;SDS011;1093;51.424;11.764;2024-03-06T14:04:31;28.90;;;20.10;;
2173;SDS011;1093;51.424;11.764;2024-03-06T14:07:16;32.70;;;23.33;;
2173;SDS011;1093;51.424;11.764;2024-03-06T14:09:59;33.10;;;20.67;;
2173;SDS011;1093;51.424;11.764;2024-03-06T14:12:40;31.27;;;19.90;;
2173;SDS011;1093;51.424;11.764;2024-03-06T14:15:44;34.40;;;21.10;;
2173;SDS011;1093;51.424;11.764;2024-03-06T14:22:35;31.07;;;21.07;;
2173;SDS011;1093;51.424;11.764;2024-03-06T14:25:37;31.90;;;20.87;;
2173;SDS011;1093;51.424;11.764;2024-03-06T14:29:26;28.37;;;20.33;;
2173;SDS011;1093;51.424;11.764;2024-03-06T14:31:44;25.23;;;17.70;;
2173;SDS011;1093;51.424;11.764;2024-03-06T14:34:27;28.43;;;18.60;;
2173;SDS011;1093;51.424;11.764;2024-03-06T14:37:07;29.50;;;20.10;;
2173;SDS011;1093;51.424;11.764;2024-03-06T14:43:12;25.50;;;18.13;;
2173;SDS011;1093;51.424;11.764;2024-03-06T14:46:23;36.77;;;19.77;;
2173;SDS011;1093;51.424;11.764;2024-03-06T14:48:44;28.07;;;18.10;;
2173;SDS011;1093;51.424;11.764;2024-03-06T14:51:27;34.13;;;20.40;;
2173;SDS011;1093;51.424;11.764;2024-03-06T14:54:14;32.70;;;20.90;;
2173;SDS011;1093;51.424;11.764;2024-03-06T14:56:59;34.93;;;21.93;;
2173;SDS011;1093;51.424;11.764;2024-03-06T15:15:13;34.30;;;20.00;;
2173;SDS011;1093;51.424;11.764;2024-03-06T15:19:55;30.80;;;19.20;;
2173;SDS011;1093;51.424;11.764;2024-03-06T15:26:01;29.57;;;19.17;;
2173;SDS011;1093;51.424;11.764;2024-03-06T15:31:38;28.70;;;18.37;;
2173;SDS011;1093;51.424;11.764;2024-03-06T16:17:09;22.63;;;13.50;;
2173;SDS011;1093;51.424;11.764;2024-03-06T16:20:30;19.27;;;13.53;;
2173;SDS011;1093;51.424;11.764;2024-03-06T16:23:27;23.97;;;16.00;;
2173;SDS011;1093;51.424;11.764;2024-03-06T16:26:41;24.60;;;14.30;;
2173;SDS011;1093;51.424;11.764;2024-03-06T16:29:27;22.87;;;13.90;;
2173;SDS011;1093;51.424;11.764;2024-03-06T16:32:06;24.37;;;13.90;;
2173;SDS011;1093;51.424;11.764;2024-03-06T16:34:47;24.27;;;15.50;;
2173;SDS011;1093;51.424;11.764;2024-03-06T16:37:54;20.27;;;14.00;;
2173;SDS011;1093;51.424;11.764;2024-03-06T16:40:32;26.10;;;16.17;;
2173;SDS011;1093;51.424;11.764;2024-03-06T16:43:25;24.90;;;15.80;;
2173;SDS011;1093;51.424;11.764;2024-03-06T16:49:24;29.50;;;16.97;;
2173;SDS011;1093;51.424;11.764;2024-03-06T16:53:45;24.20;;;15.37;;
2173;SDS011;1093;51.424;11.764;2024-03-06T16:55:36;22.23;;;14.47;;
2173;SDS011;1093;51.424;11.764;2024-03-06T16:58:22;26.10;;;16.17;;
2173;SDS011;1093;51.424;11.764;2024-03-06T17:01:18;23.53;;;16.73;;
2173;SDS011;1093;51.424;11.764;2024-03-06T17:13:05;22.30;;;14.37;;
2173;SDS011;1093;51.424;11.764;2024-03-06T17:16:04;24.17;;;15.20;;
2173;SDS011;1093;51.424;11.764;2024-03-06T17:19:13;23.00;;;15.63;;
2173;SDS011;1093;51.424;11.764;2024-03-06T17:22:11;23.37;;;14.20;;
2173;SDS011;1093;51.424;11.764;2024-03-06T17:28:09;21.57;;;15.23;;
2173;SDS011;1093;51.424;11.764;2024-03-06T17:31:41;18.67;;;14.07;;
2173;SDS011;1093;51.424;11.764;2024-03-06T17:34:29;19.90;;;13.33;;
2173;SDS011;1093;51.424;11.764;2024-03-06T17:37:15;18.57;;;14.20;;
2173;SDS011;1093;51.424;11.764;2024-03-06T17:39:53;20.80;;;15.97;;
2173;SDS011;1093;51.424;11.764;2024-03-06T17:45:40;18.33;;;14.47;;
2173;SDS011;1093;51.424;11.764;2024-03-06T17:48:19;21.63;;;15.97;;
2173;SDS011;1093;51.424;11.764;2024-03-06T17:50:51;21.47;;;17.83;;
2173;SDS011;1093;51.424;11.764;2024-03-06T17:53:19;18.67;;;15.23;;
2173;SDS011;1093;51.424;11.764;2024-03-06T17:55:49;19.77;;;14.53;;
2173;SDS011;1093;51.424;11.764;2024-03-06T17:58:26;20.47;;;14.30;;
2173;SDS011;1093;51.424;11.764;2024-03-06T18:00:56;17.20;;;12.97;;
2173;SDS011;1093;51.424;11.764;2024-03-06T18:03:26;23.50;;;14.87;;
2173;SDS011;1093;51.424;11.764;2024-03-06T18:05:55;20.50;;;15.10;;
2173;SDS011;1093;51.424;11.764;2024-03-06T18:08:23;22.53;;;13.73;;
2173;SDS011;1093;51.424;11.764;2024-03-06T18:10:57;22.40;;;14.10;;
2173;SDS011;1093;51.424;11.764;2024-03-06T18:13:38;19.53;;;12.80;;
2173;SDS011;1093;51.424;11.764;2024-03-06T18:16:17;18.87;;;12.73;;
2173;SDS011;1093;51.424;11.764;2024-03-06T18:18:45;23.73;;;14.03;;
2173;SDS011;1093;51.424;11.764;2024-03-06T18:21:18;19.60;;;13.30;;
2173;SDS011;1093;51.424;11.764;2024-03-06T18:23:45;16.87;;;13.97;;
2173;SDS011;1093;51.424;11.764;2024-03-06T18:26:18;19.50;;;11.93;;
2173;SDS011;1093;51.424;11.764;2024-03-06T18:28:47;18.63;;;12.70;;
2173;SDS011;1093;51.424;11.764;2024-03-06T18:31:29;17.20;;;13.57;;
2173;SDS011;1093;51.424;11.764;2024-03-06T18:34:24;18.90;;;12.27;;
2173;SDS011;1093;51.424;11.764;2024-03-06T18:43:38;19.27;;;12.40;;
2173;SDS011;1093;51.424;11.764;2024-03-06T18:46:37;19.27;;;12.00;;
2173;SDS011;1093;51.424;11.764;2024-03-06T18:49:12;17.10;;;12.30;;
2173;SDS011;1093;51.424;11.764;2024-03-06T18:51:48;19.37;;;12.90;;
2173;SDS011;1093;51.424;11.764;2024-03-06T18:54:17;17.77;;;12.80;;
2173;SDS011;1093;51.424;11.764;2024-03-06T18:56:52;19.00;;;11.83;;
2173;SDS011;1093;51.424;11.764;2024-03-06T18:59:49;16.20;;;11.60;;
2173;SDS011;1093;51.424;11.764;2024-03-06T19:02:34;14.10;;;11.60;;
2173;SDS011;1093;51.424;11.764;2024-03-06T19:05:09;16.30;;;11.20;;
2173;SDS011;1093;51.424;11.764;2024-03-06T19:07:36;18.30;;;10.47;;
2173;SDS011;1093;51.424;11.764;2024-03-06T19:10:16;20.13;;;11.47;;
2173;SDS011;1093;51.424;11.764;2024-03-06T19:12:47;15.67;;;11.27;;
2173;SDS011;1093;51.424;11.764;2024-03-06T19:18:27;16.10;;;12.77;;
2173;SDS011;1093;51.424;11.764;2024-03-06T19:21:03;18.37;;;11.37;;
2173;SDS011;1093;51.424;11.764;2024-03-06T19:23:35;22.27;;;13.00;;